sensor_id;sensor_type;location;lat;lon;timestamp;temperature;humidity
10296;DHT22;5193;51.032;6.356;2023-11-21T00:00:26;7.70;99.90
10296;DHT22;5193;51.032;6.356;2023-11-21T00:02:52;7.70;99.90
10296;DHT22;5193;51.032;6.356;2023-11-21T00:05:20;7.70;99.90
10296;DHT22;5193;51.032;6.356;2023-11-21T00:07:48;7.60;99.90
10296;DHT22;5193;51.032;6.356;2023-11-21T00:10:17;7.50;99.90
10296;DHT22;5193;51.032;6.356;2023-11-21T00:12:43;7.50;99.90
10296;DHT22;5193;51.032;6.356;2023-11-21T00:15:09;7.50;99.90
10296;DHT22;5193;51.032;6.356;2023-11-21T00:17:39;7.40;99.90
10296;DHT22;5193;51.032;6.356;2023-11-21T00:20:06;7.40;99.90
10296;DHT22;5193;51.032;6.356;2023-11-21T00:22:39;7.40;99.90
10296;DHT22;5193;51.032;6.356;2023-11-21T00:25:09;7.40;99.90
10296;DHT22;5193;51.032;6.356;2023-11-21T00:27:39;7.40;99.90
10296;DHT22;5193;51.032;6.356;2023-11-21T00:30:05;7.40;99.90
10296;DHT22;5193;51.032;6.356;2023-11-21T00:32:31;7.40;99.90
10296;DHT22;5193;51.032;6.356;2023-11-21T00:34:57;7.30;99.90
10296;DHT22;5193;51.032;6.356;2023-11-21T00:37:23;7.40;99.90
10296;DHT22;5193;51.032;6.356;2023-11-21T00:39:49;7.30;99.90
10296;DHT22;5193;51.032;6.356;2023-11-21T00:42:15;7.30;99.90
10296;DHT22;5193;51.032;6.356;2023-11-21T00:44:40;7.30;99.90
10296;DHT22;5193;51.032;6.356;2023-11-21T00:47:06;7.30;99.90
10296;DHT22;5193;51.032;6.356;2023-11-21T00:49:36;7.30;99.90
10296;DHT22;5193;51.032;6.356;2023-11-21T00:52:05;7.30;99.90
10296;DHT22;5193;51.032;6.356;2023-11-21T00:54:32;7.30;99.90
10296;DHT22;5193;51.032;6.356;2023-11-21T00:56:59;7.30;99.90
10296;DHT22;5193;51.032;6.356;2023-11-21T00:59:26;7.30;99.90
10296;DHT22;5193;51.032;6.356;2023-11-21T01:01:51;7.20;99.90
10296;DHT22;5193;51.032;6.356;2023-11-21T01:04:19;7.20;99.90
10296;DHT22;5193;51.032;6.356;2023-11-21T01:06:44;7.20;99.90
10296;DHT22;5193;51.032;6.356;2023-11-21T01:09:13;7.20;99.90
10296;DHT22;5193;51.032;6.356;2023-11-21T01:11:39;7.20;99.90
10296;DHT22;5193;51.032;6.356;2023-11-21T01:14:06;7.20;99.90
10296;DHT22;5193;51.032;6.356;2023-11-21T01:16:34;7.20;99.90
10296;DHT22;5193;51.032;6.356;2023-11-21T01:19:03;7.20;99.90
10296;DHT22;5193;51.032;6.356;2023-11-21T01:21:32;7.20;99.90
10296;DHT22;5193;51.032;6.356;2023-11-21T01:23:59;7.20;99.90
10296;DHT22;5193;51.032;6.356;2023-11-21T01:26:25;7.20;99.90
10296;DHT22;5193;51.032;6.356;2023-11-21T01:28:56;7.20;99.90
10296;DHT22;5193;51.032;6.356;2023-11-21T01:31:25;7.20;99.90
10296;DHT22;5193;51.032;6.356;2023-11-21T01:33:57;7.20;99.90
10296;DHT22;5193;51.032;6.356;2023-11-21T01:36:30;7.30;99.90
10296;DHT22;5193;51.032;6.356;2023-11-21T01:39:02;7.30;99.90
10296;DHT22;5193;51.032;6.356;2023-11-21T01:41:34;7.30;99.90
10296;DHT22;5193;51.032;6.356;2023-11-21T01:44:02;7.30;99.90
10296;DHT22;5193;51.032;6.356;2023-11-21T01:46:29;7.30;99.90
10296;DHT22;5193;51.032;6.356;2023-11-21T01:48:56;7.30;99.90
10296;DHT22;5193;51.032;6.356;2023-11-21T01:51:21;7.30;99.90
10296;DHT22;5193;51.032;6.356;2023-11-21T01:53:50;7.30;99.90
10296;DHT22;5193;51.032;6.356;2023-11-21T01:56:18;7.40;99.90
10296;DHT22;5193;51.032;6.356;2023-11-21T01:58:47;7.30;99.90
10296;DHT22;5193;51.032;6.356;2023-11-21T02:01:12;7.40;99.90
10296;DHT22;5193;51.032;6.356;2023-11-21T02:03:39;7.40;99.90
10296;DHT22;5193;51.032;6.356;2023-11-21T02:06:07;7.40;99.90
10296;DHT22;5193;51.032;6.356;2023-11-21T02:08:34;7.40;99.90
10296;DHT22;5193;51.032;6.356;2023-11-21T02:11:05;7.40;99.90
10296;DHT22;5193;51.032;6.356;2023-11-21T02:13:32;7.40;99.90
10296;DHT22;5193;51.032;6.356;2023-11-21T02:16:00;7.40;99.90
10296;DHT22;5193;51.032;6.356;2023-11-21T02:18:26;7.40;99.90
10296;DHT22;5193;51.032;6.356;2023-11-21T02:20:55;7.40;99.90
10296;DHT22;5193;51.032;6.356;2023-11-21T02:23:23;7.50;99.90
10296;DHT22;5193;51.032;6.356;2023-11-21T02:25:54;7.50;99.90
10296;DHT22;5193;51.032;6.356;2023-11-21T02:28:20;7.50;99.90
10296;DHT22;5193;51.032;6.356;2023-11-21T02:30:53;7.50;99.90
10296;DHT22;5193;51.032;6.356;2023-11-21T02:33:23;7.50;99.90
10296;DHT22;5193;51.032;6.356;2023-11-21T02:35:52;7.50;99.90
10296;DHT22;5193;51.032;6.356;2023-11-21T02:38:21;7.50;99.90
10296;DHT22;5193;51.032;6.356;2023-11-21T02:40:48;7.60;99.90
10296;DHT22;5193;51.032;6.356;2023-11-21T02:43:16;7.60;99.90
10296;DHT22;5193;51.032;6.356;2023-11-21T02:45:44;7.50;99.90
10296;DHT22;5193;51.032;6.356;2023-11-21T02:48:10;7.60;99.90
10296;DHT22;5193;51.032;6.356;2023-11-21T02:50:42;7.60;99.90
10296;DHT22;5193;51.032;6.356;2023-11-21T02:53:09;7.60;99.90
10296;DHT22;5193;51.032;6.356;2023-11-21T02:55:39;7.60;99.90
10296;DHT22;5193;51.032;6.356;2023-11-21T02:58:05;7.60;99.90
10296;DHT22;5193;51.032;6.356;2023-11-21T03:00:36;7.60;99.90
10296;DHT22;5193;51.032;6.356;2023-11-21T03:03:02;7.60;99.90
10296;DHT22;5193;51.032;6.356;2023-11-21T03:05:28;7.70;99.90
10296;DHT22;5193;51.032;6.356;2023-11-21T03:07:55;7.60;99.90
10296;DHT22;5193;51.032;6.356;2023-11-21T03:10:21;7.70;99.90
10296;DHT22;5193;51.032;6.356;2023-11-21T03:12:47;7.70;99.90
10296;DHT22;5193;51.032;6.356;2023-11-21T03:15:12;7.60;99.90
10296;DHT22;5193;51.032;6.356;2023-11-21T03:17:41;7.70;99.90
10296;DHT22;5193;51.032;6.356;2023-11-21T03:20:08;7.70;99.90
10296;DHT22;5193;51.032;6.356;2023-11-21T03:22:36;7.60;99.90
10296;DHT22;5193;51.032;6.356;2023-11-21T03:25:02;7.60;99.90
10296;DHT22;5193;51.032;6.356;2023-11-21T03:27:28;7.60;99.90
10296;DHT22;5193;51.032;6.356;2023-11-21T03:29:54;7.70;99.90
10296;DHT22;5193;51.032;6.356;2023-11-21T03:32:21;7.70;99.90
10296;DHT22;5193;51.032;6.356;2023-11-21T03:34:57;7.60;99.90
10296;DHT22;5193;51.032;6.356;2023-11-21T03:37:23;7.60;99.90
10296;DHT22;5193;51.032;6.356;2023-11-21T03:39:49;7.60;99.90
10296;DHT22;5193;51.032;6.356;2023-11-21T03:42:16;7.70;99.90
10296;DHT22;5193;51.032;6.356;2023-11-21T03:44:41;7.70;99.90
10296;DHT22;5193;51.032;6.356;2023-11-21T03:47:07;7.70;99.90
10296;DHT22;5193;51.032;6.356;2023-11-21T03:49:33;7.60;99.90
10296;DHT22;5193;51.032;6.356;2023-11-21T03:52:04;7.70;99.90
10296;DHT22;5193;51.032;6.356;2023-11-21T03:54:36;7.60;99.90
10296;DHT22;5193;51.032;6.356;2023-11-21T03:57:01;7.70;99.90
10296;DHT22;5193;51.032;6.356;2023-11-21T03:59:27;7.70;99.90
10296;DHT22;5193;51.032;6.356;2023-11-21T04:01:56;7.70;99.90
10296;DHT22;5193;51.032;6.356;2023-11-21T04:04:22;7.70;99.90
10296;DHT22;5193;51.032;6.356;2023-11-21T04:06:48;7.70;99.90
10296;DHT22;5193;51.032;6.356;2023-11-21T04:09:20;7.70;99.90
10296;DHT22;5193;51.032;6.356;2023-11-21T04:11:46;7.70;99.90
10296;DHT22;5193;51.032;6.356;2023-11-21T04:14:13;7.70;99.90
10296;DHT22;5193;51.032;6.356;2023-11-21T04:16:41;7.70;99.90
10296;DHT22;5193;51.032;6.356;2023-11-21T04:19:08;7.70;99.90
10296;DHT22;5193;51.032;6.356;2023-11-21T04:21:41;7.70;99.90
10296;DHT22;5193;51.032;6.356;2023-11-21T04:24:08;7.70;99.90
10296;DHT22;5193;51.032;6.356;2023-11-21T04:26:37;7.70;99.90
10296;DHT22;5193;51.032;6.356;2023-11-21T04:29:03;7.70;99.90
10296;DHT22;5193;51.032;6.356;2023-11-21T04:31:31;7.70;99.90
10296;DHT22;5193;51.032;6.356;2023-11-21T04:33:57;7.70;99.90
10296;DHT22;5193;51.032;6.356;2023-11-21T04:36:23;7.60;99.90
10296;DHT22;5193;51.032;6.356;2023-11-21T04:38:49;7.70;99.90
10296;DHT22;5193;51.032;6.356;2023-11-21T04:41:17;7.70;99.90
10296;DHT22;5193;51.032;6.356;2023-11-21T04:43:46;7.60;99.90
10296;DHT22;5193;51.032;6.356;2023-11-21T04:46:12;7.60;99.90
10296;DHT22;5193;51.032;6.356;2023-11-21T04:48:38;7.60;99.90
10296;DHT22;5193;51.032;6.356;2023-11-21T04:51:04;7.60;99.90
10296;DHT22;5193;51.032;6.356;2023-11-21T04:53:37;7.70;99.90
10296;DHT22;5193;51.032;6.356;2023-11-21T04:56:03;7.60;99.90
10296;DHT22;5193;51.032;6.356;2023-11-21T04:58:30;7.60;99.90
10296;DHT22;5193;51.032;6.356;2023-11-21T05:00:57;7.60;99.90
10296;DHT22;5193;51.032;6.356;2023-11-21T05:03:23;7.60;99.90
10296;DHT22;5193;51.032;6.356;2023-11-21T05:05:49;7.60;99.90
10296;DHT22;5193;51.032;6.356;2023-11-21T05:08:18;7.50;99.90
10296;DHT22;5193;51.032;6.356;2023-11-21T05:10:45;7.60;99.90
10296;DHT22;5193;51.032;6.356;2023-11-21T05:13:17;7.60;99.90
10296;DHT22;5193;51.032;6.356;2023-11-21T05:15:44;7.60;99.90
10296;DHT22;5193;51.032;6.356;2023-11-21T05:18:13;7.60;99.90
10296;DHT22;5193;51.032;6.356;2023-11-21T05:20:43;7.60;99.90
10296;DHT22;5193;51.032;6.356;2023-11-21T05:23:12;7.60;99.90
10296;DHT22;5193;51.032;6.356;2023-11-21T05:25:37;7.60;99.90
10296;DHT22;5193;51.032;6.356;2023-11-21T05:28:10;7.60;99.90
10296;DHT22;5193;51.032;6.356;2023-11-21T05:30:40;7.60;99.90
10296;DHT22;5193;51.032;6.356;2023-11-21T05:33:05;7.60;99.90
10296;DHT22;5193;51.032;6.356;2023-11-21T05:35:31;7.60;99.90
10296;DHT22;5193;51.032;6.356;2023-11-21T05:37:57;7.60;99.90
10296;DHT22;5193;51.032;6.356;2023-11-21T05:40:23;8.70;99.90
10296;DHT22;5193;51.032;6.356;2023-11-21T05:42:48;7.70;99.90
10296;DHT22;5193;51.032;6.356;2023-11-21T05:45:14;7.70;99.90
10296;DHT22;5193;51.032;6.356;2023-11-21T05:47:42;7.70;99.90
10296;DHT22;5193;51.032;6.356;2023-11-21T05:50:17;7.70;99.90
10296;DHT22;5193;51.032;6.356;2023-11-21T05:52:44;7.80;99.90
10296;DHT22;5193;51.032;6.356;2023-11-21T05:55:12;7.80;99.90
10296;DHT22;5193;51.032;6.356;2023-11-21T05:57:39;7.80;99.90
10296;DHT22;5193;51.032;6.356;2023-11-21T06:00:17;7.80;99.90
10296;DHT22;5193;51.032;6.356;2023-11-21T06:02:49;7.80;99.90
10296;DHT22;5193;51.032;6.356;2023-11-21T06:05:25;7.80;99.90
10296;DHT22;5193;51.032;6.356;2023-11-21T06:11:07;7.90;99.90
10296;DHT22;5193;51.032;6.356;2023-11-21T06:13:33;7.90;99.90
10296;DHT22;5193;51.032;6.356;2023-11-21T06:15:59;7.90;99.90
10296;DHT22;5193;51.032;6.356;2023-11-21T06:18:26;7.90;99.90
10296;DHT22;5193;51.032;6.356;2023-11-21T06:20:52;7.90;99.90
10296;DHT22;5193;51.032;6.356;2023-11-21T06:23:18;7.90;99.90
10296;DHT22;5193;51.032;6.356;2023-11-21T06:25:44;7.90;99.90
10296;DHT22;5193;51.032;6.356;2023-11-21T06:28:10;7.90;99.90
10296;DHT22;5193;51.032;6.356;2023-11-21T06:30:35;8.00;99.90
10296;DHT22;5193;51.032;6.356;2023-11-21T06:33:01;7.90;99.90
10296;DHT22;5193;51.032;6.356;2023-11-21T06:35:27;7.90;99.90
10296;DHT22;5193;51.032;6.356;2023-11-21T06:37:58;8.00;99.90
10296;DHT22;5193;51.032;6.356;2023-11-21T06:40:24;8.00;99.90
10296;DHT22;5193;51.032;6.356;2023-11-21T06:42:52;8.00;99.90
10296;DHT22;5193;51.032;6.356;2023-11-21T06:45:19;8.00;99.90
10296;DHT22;5193;51.032;6.356;2023-11-21T06:47:48;8.00;99.90
10296;DHT22;5193;51.032;6.356;2023-11-21T06:50:18;8.00;99.90
10296;DHT22;5193;51.032;6.356;2023-11-21T06:52:44;8.00;99.90
10296;DHT22;5193;51.032;6.356;2023-11-21T06:55:10;8.10;99.90
10296;DHT22;5193;51.032;6.356;2023-11-21T06:57:36;8.10;99.90
10296;DHT22;5193;51.032;6.356;2023-11-21T07:00:04;8.00;99.90
10296;DHT22;5193;51.032;6.356;2023-11-21T07:02:31;8.10;99.90
10296;DHT22;5193;51.032;6.356;2023-11-21T07:05:01;8.10;99.90
10296;DHT22;5193;51.032;6.356;2023-11-21T07:07:30;8.10;99.90
10296;DHT22;5193;51.032;6.356;2023-11-21T07:09:57;8.10;99.90
10296;DHT22;5193;51.032;6.356;2023-11-21T07:12:23;8.10;99.90
10296;DHT22;5193;51.032;6.356;2023-11-21T07:14:51;8.10;99.90
10296;DHT22;5193;51.032;6.356;2023-11-21T07:17:26;8.10;99.90
10296;DHT22;5193;51.032;6.356;2023-11-21T07:19:51;8.10;99.90
10296;DHT22;5193;51.032;6.356;2023-11-21T07:22:17;8.10;99.90
10296;DHT22;5193;51.032;6.356;2023-11-21T07:24:50;8.20;99.90
10296;DHT22;5193;51.032;6.356;2023-11-21T07:27:17;8.20;99.90
10296;DHT22;5193;51.032;6.356;2023-11-21T07:29:47;8.20;99.90
10296;DHT22;5193;51.032;6.356;2023-11-21T07:32:14;8.20;99.90
10296;DHT22;5193;51.032;6.356;2023-11-21T07:34:40;8.20;99.90
10296;DHT22;5193;51.032;6.356;2023-11-21T07:37:08;8.20;99.90
10296;DHT22;5193;51.032;6.356;2023-11-21T07:39:38;8.30;99.90
10296;DHT22;5193;51.032;6.356;2023-11-21T07:42:07;8.20;99.90
10296;DHT22;5193;51.032;6.356;2023-11-21T07:44:32;8.30;99.90
10296;DHT22;5193;51.032;6.356;2023-11-21T07:46:58;8.30;99.90
10296;DHT22;5193;51.032;6.356;2023-11-21T07:49:24;8.30;99.90
10296;DHT22;5193;51.032;6.356;2023-11-21T07:51:55;8.30;99.90
10296;DHT22;5193;51.032;6.356;2023-11-21T07:54:30;8.40;99.90
10296;DHT22;5193;51.032;6.356;2023-11-21T07:57:03;8.40;99.90
10296;DHT22;5193;51.032;6.356;2023-11-21T07:59:30;8.30;99.90
10296;DHT22;5193;51.032;6.356;2023-11-21T08:05:12;8.40;99.90
10296;DHT22;5193;51.032;6.356;2023-11-21T08:07:39;8.40;99.90
10296;DHT22;5193;51.032;6.356;2023-11-21T08:10:18;8.50;99.90
10296;DHT22;5193;51.032;6.356;2023-11-21T08:12:43;8.50;99.90
10296;DHT22;5193;51.032;6.356;2023-11-21T08:15:12;8.40;99.90
10296;DHT22;5193;51.032;6.356;2023-11-21T08:17:38;8.50;99.90
10296;DHT22;5193;51.032;6.356;2023-11-21T08:20:04;8.50;99.90
10296;DHT22;5193;51.032;6.356;2023-11-21T08:22:33;8.50;99.90
10296;DHT22;5193;51.032;6.356;2023-11-21T08:25:03;8.50;99.90
10296;DHT22;5193;51.032;6.356;2023-11-21T08:27:30;8.50;99.90
10296;DHT22;5193;51.032;6.356;2023-11-21T08:29:55;8.60;99.90
10296;DHT22;5193;51.032;6.356;2023-11-21T08:32:34;8.60;99.90
10296;DHT22;5193;51.032;6.356;2023-11-21T08:35:01;8.60;99.90
10296;DHT22;5193;51.032;6.356;2023-11-21T08:37:26;8.70;99.90
10296;DHT22;5193;51.032;6.356;2023-11-21T08:39:53;8.70;99.90
10296;DHT22;5193;51.032;6.356;2023-11-21T08:42:22;8.70;99.90
10296;DHT22;5193;51.032;6.356;2023-11-21T08:44:48;8.70;99.90
10296;DHT22;5193;51.032;6.356;2023-11-21T08:47:14;8.80;99.90
10296;DHT22;5193;51.032;6.356;2023-11-21T08:49:39;8.70;99.90
10296;DHT22;5193;51.032;6.356;2023-11-21T08:52:05;8.80;99.90
10296;DHT22;5193;51.032;6.356;2023-11-21T08:57:48;8.80;99.90
10296;DHT22;5193;51.032;6.356;2023-11-21T09:00:15;8.90;99.90
10296;DHT22;5193;51.032;6.356;2023-11-21T09:02:54;8.90;99.90
10296;DHT22;5193;51.032;6.356;2023-11-21T09:05:24;8.90;99.90
10296;DHT22;5193;51.032;6.356;2023-11-21T09:07:49;8.90;99.90
10296;DHT22;5193;51.032;6.356;2023-11-21T09:10:15;9.00;99.90
10296;DHT22;5193;51.032;6.356;2023-11-21T09:12:41;9.00;99.90
10296;DHT22;5193;51.032;6.356;2023-11-21T09:15:09;9.00;99.90
10296;DHT22;5193;51.032;6.356;2023-11-21T09:17:37;9.00;99.90
10296;DHT22;5193;51.032;6.356;2023-11-21T09:20:06;9.10;99.90
10296;DHT22;5193;51.032;6.356;2023-11-21T09:22:35;9.10;99.90
10296;DHT22;5193;51.032;6.356;2023-11-21T09:25:03;9.10;99.90
10296;DHT22;5193;51.032;6.356;2023-11-21T09:27:31;9.20;99.90
10296;DHT22;5193;51.032;6.356;2023-11-21T09:29:56;9.20;99.90
10296;DHT22;5193;51.032;6.356;2023-11-21T09:32:23;9.30;99.90
10296;DHT22;5193;51.032;6.356;2023-11-21T09:34:50;9.30;99.90
10296;DHT22;5193;51.032;6.356;2023-11-21T09:37:17;9.40;99.90
10296;DHT22;5193;51.032;6.356;2023-11-21T09:39:42;9.40;99.90
10296;DHT22;5193;51.032;6.356;2023-11-21T09:42:20;9.40;99.90
10296;DHT22;5193;51.032;6.356;2023-11-21T09:45:05;9.50;99.90
10296;DHT22;5193;51.032;6.356;2023-11-21T09:47:39;9.50;99.90
10296;DHT22;5193;51.032;6.356;2023-11-21T09:50:05;9.50;99.90
10296;DHT22;5193;51.032;6.356;2023-11-21T09:52:55;9.60;99.90
10296;DHT22;5193;51.032;6.356;2023-11-21T09:55:27;9.50;99.90
10296;DHT22;5193;51.032;6.356;2023-11-21T09:58:01;9.60;99.90
10296;DHT22;5193;51.032;6.356;2023-11-21T10:00:28;9.60;99.90
10296;DHT22;5193;51.032;6.356;2023-11-21T10:02:56;9.60;99.90
10296;DHT22;5193;51.032;6.356;2023-11-21T10:05:25;9.70;99.90
10296;DHT22;5193;51.032;6.356;2023-11-21T10:07:52;9.70;99.90
10296;DHT22;5193;51.032;6.356;2023-11-21T10:10:23;9.80;99.90
10296;DHT22;5193;51.032;6.356;2023-11-21T10:12:51;9.90;99.90
10296;DHT22;5193;51.032;6.356;2023-11-21T10:15:21;9.90;99.90
10296;DHT22;5193;51.032;6.356;2023-11-21T10:17:50;9.90;99.90
10296;DHT22;5193;51.032;6.356;2023-11-21T10:20:19;9.90;99.90
10296;DHT22;5193;51.032;6.356;2023-11-21T10:22:46;10.00;99.90
10296;DHT22;5193;51.032;6.356;2023-11-21T10:25:12;10.00;99.90
10296;DHT22;5193;51.032;6.356;2023-11-21T10:27:42;10.00;99.90
10296;DHT22;5193;51.032;6.356;2023-11-21T10:30:10;10.00;99.90
10296;DHT22;5193;51.032;6.356;2023-11-21T10:32:40;10.00;99.90
10296;DHT22;5193;51.032;6.356;2023-11-21T10:35:09;10.00;99.90
10296;DHT22;5193;51.032;6.356;2023-11-21T10:37:44;9.90;99.90
10296;DHT22;5193;51.032;6.356;2023-11-21T10:40:28;10.00;99.90
10296;DHT22;5193;51.032;6.356;2023-11-21T10:42:54;9.90;99.90
10296;DHT22;5193;51.032;6.356;2023-11-21T10:45:29;10.00;99.90
10296;DHT22;5193;51.032;6.356;2023-11-21T10:47:54;10.00;99.90
10296;DHT22;5193;51.032;6.356;2023-11-21T10:50:21;10.10;99.90
10296;DHT22;5193;51.032;6.356;2023-11-21T10:52:54;10.10;99.90
10296;DHT22;5193;51.032;6.356;2023-11-21T10:58:41;10.20;99.90
10296;DHT22;5193;51.032;6.356;2023-11-21T11:01:10;10.20;99.90
10296;DHT22;5193;51.032;6.356;2023-11-21T11:03:37;10.20;99.90
10296;DHT22;5193;51.032;6.356;2023-11-21T11:06:06;10.20;99.90
10296;DHT22;5193;51.032;6.356;2023-11-21T11:08:45;10.30;99.90
10296;DHT22;5193;51.032;6.356;2023-11-21T11:11:12;10.30;99.90
10296;DHT22;5193;51.032;6.356;2023-11-21T11:13:43;10.30;99.90
10296;DHT22;5193;51.032;6.356;2023-11-21T11:16:10;10.30;99.90
10296;DHT22;5193;51.032;6.356;2023-11-21T11:18:36;10.30;99.90
10296;DHT22;5193;51.032;6.356;2023-11-21T11:21:11;10.30;99.90
10296;DHT22;5193;51.032;6.356;2023-11-21T11:24:20;10.40;99.90
10296;DHT22;5193;51.032;6.356;2023-11-21T11:35:32;10.50;99.90
10296;DHT22;5193;51.032;6.356;2023-11-21T11:38:02;10.50;99.90
10296;DHT22;5193;51.032;6.356;2023-11-21T11:40:41;10.50;99.90
10296;DHT22;5193;51.032;6.356;2023-11-21T11:43:10;10.60;99.90
10296;DHT22;5193;51.032;6.356;2023-11-21T11:45:37;10.60;99.90
10296;DHT22;5193;51.032;6.356;2023-11-21T11:48:11;10.60;99.90
10296;DHT22;5193;51.032;6.356;2023-11-21T11:51:00;10.60;99.90
10296;DHT22;5193;51.032;6.356;2023-11-21T11:53:34;10.60;99.90
10296;DHT22;5193;51.032;6.356;2023-11-21T11:56:22;10.70;99.90
10296;DHT22;5193;51.032;6.356;2023-11-21T11:58:51;10.70;99.90
10296;DHT22;5193;51.032;6.356;2023-11-21T12:01:21;10.70;99.90
10296;DHT22;5193;51.032;6.356;2023-11-21T12:04:23;10.80;99.90
10296;DHT22;5193;51.032;6.356;2023-11-21T12:06:53;10.90;99.90
10296;DHT22;5193;51.032;6.356;2023-11-21T12:09:23;10.90;99.90
10296;DHT22;5193;51.032;6.356;2023-11-21T12:11:52;10.90;99.90
10296;DHT22;5193;51.032;6.356;2023-11-21T12:14:20;10.90;99.90
10296;DHT22;5193;51.032;6.356;2023-11-21T12:16:47;11.00;99.90
10296;DHT22;5193;51.032;6.356;2023-11-21T12:19:13;11.00;99.90
10296;DHT22;5193;51.032;6.356;2023-11-21T12:21:41;11.00;99.90
10296;DHT22;5193;51.032;6.356;2023-11-21T12:24:12;11.00;99.90
10296;DHT22;5193;51.032;6.356;2023-11-21T12:26:42;11.10;99.90
10296;DHT22;5193;51.032;6.356;2023-11-21T12:29:08;11.10;99.90
10296;DHT22;5193;51.032;6.356;2023-11-21T12:31:34;11.10;99.90
10296;DHT22;5193;51.032;6.356;2023-11-21T12:34:00;11.00;99.90
10296;DHT22;5193;51.032;6.356;2023-11-21T12:36:30;11.00;99.90
10296;DHT22;5193;51.032;6.356;2023-11-21T12:38:56;11.00;99.90
10296;DHT22;5193;51.032;6.356;2023-11-21T12:41:22;11.10;99.90
10296;DHT22;5193;51.032;6.356;2023-11-21T12:43:47;11.10;99.90
10296;DHT22;5193;51.032;6.356;2023-11-21T12:46:14;11.10;99.90
10296;DHT22;5193;51.032;6.356;2023-11-21T12:48:44;11.00;99.90
10296;DHT22;5193;51.032;6.356;2023-11-21T12:51:13;11.00;99.90
10296;DHT22;5193;51.032;6.356;2023-11-21T12:53:45;11.00;99.90
10296;DHT22;5193;51.032;6.356;2023-11-21T12:56:15;11.00;99.90
10296;DHT22;5193;51.032;6.356;2023-11-21T12:58:46;11.00;99.90
10296;DHT22;5193;51.032;6.356;2023-11-21T13:01:17;11.00;99.90
10296;DHT22;5193;51.032;6.356;2023-11-21T13:03:49;11.00;99.90
10296;DHT22;5193;51.032;6.356;2023-11-21T13:06:17;10.90;99.90
10296;DHT22;5193;51.032;6.356;2023-11-21T13:08:44;10.90;99.90
10296;DHT22;5193;51.032;6.356;2023-11-21T13:11:13;10.90;99.90
10296;DHT22;5193;51.032;6.356;2023-11-21T13:13:41;10.90;99.90
10296;DHT22;5193;51.032;6.356;2023-11-21T13:16:10;10.90;99.90
10296;DHT22;5193;51.032;6.356;2023-11-21T13:18:36;10.90;99.90
10296;DHT22;5193;51.032;6.356;2023-11-21T13:21:11;10.90;99.90
10296;DHT22;5193;51.032;6.356;2023-11-21T13:23:39;10.90;99.90
10296;DHT22;5193;51.032;6.356;2023-11-21T13:26:07;10.90;99.90
10296;DHT22;5193;51.032;6.356;2023-11-21T13:28:37;10.90;99.90
10296;DHT22;5193;51.032;6.356;2023-11-21T13:31:04;10.90;99.90
10296;DHT22;5193;51.032;6.356;2023-11-21T13:33:53;10.90;99.90
10296;DHT22;5193;51.032;6.356;2023-11-21T13:36:32;10.80;99.90
10296;DHT22;5193;51.032;6.356;2023-11-21T13:39:00;10.80;99.90
10296;DHT22;5193;51.032;6.356;2023-11-21T13:41:33;10.70;99.90
10296;DHT22;5193;51.032;6.356;2023-11-21T13:43:59;10.70;99.90
10296;DHT22;5193;51.032;6.356;2023-11-21T13:46:47;10.70;99.90
10296;DHT22;5193;51.032;6.356;2023-11-21T13:49:13;10.60;99.90
10296;DHT22;5193;51.032;6.356;2023-11-21T13:51:39;10.70;99.90
10296;DHT22;5193;51.032;6.356;2023-11-21T13:54:09;10.70;99.90
10296;DHT22;5193;51.032;6.356;2023-11-21T13:56:36;10.70;99.90
10296;DHT22;5193;51.032;6.356;2023-11-21T13:59:06;10.80;99.90
10296;DHT22;5193;51.032;6.356;2023-11-21T14:01:54;10.80;99.90
10296;DHT22;5193;51.032;6.356;2023-11-21T14:04:38;10.90;99.90
10296;DHT22;5193;51.032;6.356;2023-11-21T14:07:28;10.90;99.90
10296;DHT22;5193;51.032;6.356;2023-11-21T14:10:03;10.90;99.90
10296;DHT22;5193;51.032;6.356;2023-11-21T14:12:34;10.90;99.90
10296;DHT22;5193;51.032;6.356;2023-11-21T14:15:06;10.90;99.90
10296;DHT22;5193;51.032;6.356;2023-11-21T14:17:40;10.90;99.90
10296;DHT22;5193;51.032;6.356;2023-11-21T14:20:23;10.90;99.90
10296;DHT22;5193;51.032;6.356;2023-11-21T14:22:49;10.90;99.90
10296;DHT22;5193;51.032;6.356;2023-11-21T14:25:17;10.90;99.90
10296;DHT22;5193;51.032;6.356;2023-11-21T14:27:43;10.90;99.90
10296;DHT22;5193;51.032;6.356;2023-11-21T14:30:09;10.90;99.90
10296;DHT22;5193;51.032;6.356;2023-11-21T14:32:39;10.90;99.90
10296;DHT22;5193;51.032;6.356;2023-11-21T14:35:06;10.90;99.90
10296;DHT22;5193;51.032;6.356;2023-11-21T14:37:35;10.90;99.90
10296;DHT22;5193;51.032;6.356;2023-11-21T14:40:02;10.90;99.90
10296;DHT22;5193;51.032;6.356;2023-11-21T14:42:34;10.90;99.90
10296;DHT22;5193;51.032;6.356;2023-11-21T14:45:04;10.90;99.90
10296;DHT22;5193;51.032;6.356;2023-11-21T14:47:35;10.80;99.90
10296;DHT22;5193;51.032;6.356;2023-11-21T14:50:06;10.80;99.90
10296;DHT22;5193;51.032;6.356;2023-11-21T14:52:51;10.80;99.90
10296;DHT22;5193;51.032;6.356;2023-11-21T14:55:25;10.70;99.90
10296;DHT22;5193;51.032;6.356;2023-11-21T14:58:09;10.70;99.90
10296;DHT22;5193;51.032;6.356;2023-11-21T15:00:39;10.70;99.90
10296;DHT22;5193;51.032;6.356;2023-11-21T15:03:12;10.60;99.90
10296;DHT22;5193;51.032;6.356;2023-11-21T15:06:07;10.60;99.90
10296;DHT22;5193;51.032;6.356;2023-11-21T15:08:53;10.60;99.90
10296;DHT22;5193;51.032;6.356;2023-11-21T15:11:35;10.60;99.90
10296;DHT22;5193;51.032;6.356;2023-11-21T15:14:02;10.60;99.90
10296;DHT22;5193;51.032;6.356;2023-11-21T15:16:38;10.60;99.90
10296;DHT22;5193;51.032;6.356;2023-11-21T15:22:33;10.60;99.90
10296;DHT22;5193;51.032;6.356;2023-11-21T15:25:01;10.50;99.90
10296;DHT22;5193;51.032;6.356;2023-11-21T15:27:33;10.50;99.90
10296;DHT22;5193;51.032;6.356;2023-11-21T15:29:58;10.50;99.90
10296;DHT22;5193;51.032;6.356;2023-11-21T15:32:24;10.40;99.90
10296;DHT22;5193;51.032;6.356;2023-11-21T15:34:54;10.40;99.90
10296;DHT22;5193;51.032;6.356;2023-11-21T15:37:21;10.40;99.90
10296;DHT22;5193;51.032;6.356;2023-11-21T15:39:50;10.40;99.90
10296;DHT22;5193;51.032;6.356;2023-11-21T15:42:15;10.30;99.90
10296;DHT22;5193;51.032;6.356;2023-11-21T15:44:41;10.30;99.90
10296;DHT22;5193;51.032;6.356;2023-11-21T15:47:07;10.30;99.90
10296;DHT22;5193;51.032;6.356;2023-11-21T15:49:35;10.30;99.90
10296;DHT22;5193;51.032;6.356;2023-11-21T15:52:05;10.20;99.90
10296;DHT22;5193;51.032;6.356;2023-11-21T15:54:31;10.20;99.90
10296;DHT22;5193;51.032;6.356;2023-11-21T15:57:00;10.10;99.90
10296;DHT22;5193;51.032;6.356;2023-11-21T15:59:26;10.10;99.90
10296;DHT22;5193;51.032;6.356;2023-11-21T16:01:59;10.10;99.90
10296;DHT22;5193;51.032;6.356;2023-11-21T16:04:29;10.00;99.90
10296;DHT22;5193;51.032;6.356;2023-11-21T16:06:58;10.00;99.90
10296;DHT22;5193;51.032;6.356;2023-11-21T16:09:27;10.00;99.90
10296;DHT22;5193;51.032;6.356;2023-11-21T16:11:56;9.90;99.90
10296;DHT22;5193;51.032;6.356;2023-11-21T16:14:27;9.90;99.90
10296;DHT22;5193;51.032;6.356;2023-11-21T16:17:00;9.80;99.90
10296;DHT22;5193;51.032;6.356;2023-11-21T16:19:26;9.80;99.90
10296;DHT22;5193;51.032;6.356;2023-11-21T16:21:52;9.80;99.90
10296;DHT22;5193;51.032;6.356;2023-11-21T16:24:18;9.80;99.90
10296;DHT22;5193;51.032;6.356;2023-11-21T16:26:45;9.80;99.90
10296;DHT22;5193;51.032;6.356;2023-11-21T16:29:14;9.80;99.90
10296;DHT22;5193;51.032;6.356;2023-11-21T16:31:43;9.80;99.90
10296;DHT22;5193;51.032;6.356;2023-11-21T16:34:16;9.80;99.90